KIDA/IDA METAR and TAF weather

Enter ICAO airport designator
Station Type Date Time Source
KIDA METAR 2021/01/20 22:53 UTC NOAA

KIDA 202253Z 36006KT 10SM OVC110 M07/M10 A3016 RMK AO2 SLP281 T10671100


Station Type Date Time Source
KIDA Decoded METAR 2021/01/20 22:53 UTC NOAA

IDAHO FALLS REGIONAL AIRPORT, ID, United States (KIDA) 43-31N 112-04W 1453M
Jan 20, 2021 - 05:53 PM EST / 2021.01.20 2253 UTC
Wind: from the N (360 degrees) at 7 MPH (6 KT):0
Visibility: 10 mile(s):0
Sky conditions: overcast
Temperature: 19.9 F (-6.7 C)
Windchill: 10 F (-12 C):1
Dew Point: 14.0 F (-10.0 C)
Relative Humidity: 77%
Pressure (altimeter): 30.16 in. Hg (1021 hPa)
ob: KIDA 202253Z 36006KT 10SM OVC110 M07/M10 A3016 RMK AO2 SLP281 T10671100
cycle: 23

Station Type Date Time Source
KIDA TAF 2021/01/20 18:22 UTC NOAA

TAF KIDA 201720Z 2018/2118 36005KT P6SM SCT100 SCT200
FM211300 01006KT P6SM VCSH SCT060 BKN080

Example: see airport list